LFMP/PGF METAR and TAF weather

Enter ICAO airport designator
Station Type Date Time Source
LFMP METAR 2019/08/22 04:30 UTC NOAA

LFMP 220430Z AUTO 26004KT 230V310 9999 NCD 21/11 Q1019 NOSIG


Station Type Date Time Source
LFMP Decoded METAR 2019/08/22 04:30 UTC NOAA

Station name not available
Aug 22, 2019 - 12:30 AM EDT / 2019.08.22 0430 UTC
Wind: from the W (260 degrees) at 5 MPH (4 KT) (direction variable):0
Visibility: greater than 7 mile(s):0
Temperature: 69 F (21 C)
Dew Point: 51 F (11 C)
Relative Humidity: 52%
Pressure (altimeter): 30.09 in. Hg (1019 hPa)
ob: LFMP 220430Z AUTO 26004KT 230V310 9999 NCD 21/11 Q1019 NOSIG
cycle: 4

Station Type Date Time Source
LFMP TAF 2019/08/22 03:53 UTC NOAA

TAF LFMP 220200Z 2203/2303 32010KT CAVOK
TEMPO 2208/2212 32015G25KT
BECMG 2222/2224 25005KT

Example: see airport list